LCPH/PFO METAR and TAF weather

Enter ICAO airport designator
Station Type Date Time Source
LCPH METAR 2019/12/11 12:00 UTC NOAA

LCPH 111200Z 09015KT 9999 FEW025 SCT050 19/13 Q1011


Station Type Date Time Source
LCPH Decoded METAR 2019/12/11 12:00 UTC NOAA

Paphos Airport, Cyprus (LCPH) 34-43N 032-29E 8M
Dec 11, 2019 - 07:00 AM EST / 2019.12.11 1200 UTC
Wind: from the E (090 degrees) at 17 MPH (15 KT):0
Visibility: greater than 7 mile(s):0
Sky conditions: partly cloudy
Temperature: 66 F (19 C)
Dew Point: 55 F (13 C)
Relative Humidity: 68%
Pressure (altimeter): 29.85 in. Hg (1011 hPa)
ob: LCPH 111200Z 09015KT 9999 FEW025 SCT050 19/13 Q1011
cycle: 12

Station Type Date Time Source
LCPH TAF 2019/12/11 12:36 UTC NOAA

TAF LCPH 111130Z 1112/1212 06012KT 9999 SCT025 PROB40
TEMPO 1112/1212 5000 SHRA SCT020TCU PROB30
TEMPO 1112/1212 VRB25G35KT 3000 TSRA BKN022CB
BECMG 1205/1209 22018KT

Example: see airport list